createdAt,value
2022-11-12T00:00:00.118Z,3.87
2022-11-12T00:02:46.696Z,4.10
2022-11-12T00:05:33.594Z,4.32
2022-11-12T00:08:20.499Z,4.43
2022-11-12T00:11:07.473Z,3.78
2022-11-12T00:13:54.382Z,4.82
2022-11-12T00:16:41.100Z,5.28
2022-11-12T00:19:27.627Z,5.40
2022-11-12T00:22:14.336Z,4.35
2022-11-12T00:25:00.964Z,4.50
2022-11-12T00:27:47.743Z,4.07
2022-11-12T00:30:34.251Z,4.72
2022-11-12T00:33:20.686Z,4.12
2022-11-12T00:36:07.325Z,3.65
2022-11-12T00:38:54.402Z,3.60
2022-11-12T00:41:40.797Z,4.00
2022-11-12T00:44:28.048Z,4.78
2022-11-12T00:47:14.628Z,4.97
2022-11-12T00:50:01.381Z,4.32
2022-11-12T00:52:47.647Z,4.37
2022-11-12T00:55:34.363Z,4.18
2022-11-12T00:58:21.351Z,5.05
2022-11-12T01:01:11.056Z,4.97
2022-11-12T01:03:59.640Z,7.32
2022-11-12T01:06:46.232Z,7.50
2022-11-12T01:09:32.882Z,7.78
2022-11-12T01:12:19.631Z,6.97
2022-11-12T01:15:07.751Z,5.05
2022-11-12T01:17:54.325Z,5.32
2022-11-12T01:20:40.900Z,5.30
2022-11-12T01:23:27.259Z,4.45
2022-11-12T01:26:16.009Z,4.30
2022-11-12T01:29:02.412Z,5.00
2022-11-12T01:31:48.573Z,3.92
2022-11-12T01:34:35.448Z,3.55
2022-11-12T01:37:22.041Z,4.07
2022-11-12T01:40:09.426Z,4.32
2022-11-12T01:42:55.907Z,5.03
2022-11-12T01:45:46.489Z,3.92
2022-11-12T01:48:34.549Z,4.82
2022-11-12T01:51:24.075Z,4.55
2022-11-12T01:54:16.865Z,5.18
2022-11-12T01:57:04.126Z,5.50
2022-11-12T02:00:02.182Z,4.55
2022-11-12T02:03:12.209Z,4.00
2022-11-12T02:06:05.247Z,5.20
2022-11-12T02:08:51.909Z,4.62
2022-11-12T02:11:38.355Z,5.35
2022-11-12T02:14:24.984Z,4.72
2022-11-12T02:17:11.777Z,4.82
2022-11-12T02:19:59.627Z,3.95
2022-11-12T02:22:46.286Z,4.25
2022-11-12T02:25:33.732Z,4.35
2022-11-12T02:28:21.307Z,4.10
2022-11-12T02:31:07.934Z,3.25
2022-11-12T02:33:54.596Z,4.43
2022-11-12T02:36:41.298Z,3.53
2022-11-12T02:39:27.997Z,4.45
2022-11-12T02:42:14.317Z,4.30
2022-11-12T02:45:00.774Z,4.53
2022-11-12T02:47:47.355Z,3.87
2022-11-12T02:50:33.880Z,4.75
2022-11-12T02:53:20.638Z,4.37
2022-11-12T02:56:07.479Z,4.25
2022-11-12T02:58:54.372Z,5.07
2022-11-12T03:01:40.815Z,3.67
2022-11-12T03:04:27.407Z,3.53
2022-11-12T03:07:14.155Z,4.47
2022-11-12T03:10:00.989Z,4.35
2022-11-12T03:12:47.540Z,4.47
2022-11-12T03:15:33.806Z,5.30
2022-11-12T03:18:20.157Z,4.57
2022-11-12T03:21:06.815Z,5.28
2022-11-12T03:23:53.318Z,4.62
2022-11-12T03:26:39.850Z,4.35
2022-11-12T03:29:26.961Z,3.55
2022-11-12T03:32:13.541Z,3.87
2022-11-12T03:35:00.419Z,4.18
2022-11-12T03:37:47.119Z,4.12
2022-11-12T03:40:34.729Z,4.53
2022-11-12T03:43:21.708Z,4.20
2022-11-12T03:46:08.485Z,4.15
2022-11-12T03:48:55.333Z,3.47
2022-11-12T03:51:41.662Z,4.70
2022-11-12T03:54:27.955Z,4.43
2022-11-12T03:57:14.159Z,5.65
2022-11-12T04:00:00.882Z,5.10
2022-11-12T04:02:47.442Z,3.17
2022-11-12T04:05:52.807Z,4.28
2022-11-12T04:08:39.659Z,3.42
2022-11-12T04:11:26.615Z,3.37
2022-11-12T04:14:13.263Z,3.42
2022-11-12T04:17:18.566Z,3.95
2022-11-12T04:20:24.381Z,4.50
2022-11-12T04:23:10.841Z,4.28
2022-11-12T04:26:15.947Z,3.45
2022-11-12T04:29:21.429Z,3.17
2022-11-12T04:32:08.122Z,3.65
2022-11-12T04:34:54.559Z,3.58
2022-11-12T04:37:47.633Z,3.60
2022-11-12T04:40:52.804Z,3.60
2022-11-12T04:43:58.735Z,2.85
2022-11-12T04:46:45.392Z,3.97
2022-11-12T04:49:32.068Z,4.05
2022-11-12T04:52:18.638Z,3.67
2022-11-12T04:55:05.811Z,4.75
2022-11-12T04:57:57.486Z,4.37
2022-11-12T05:00:47.203Z,6.07
2022-11-12T05:03:33.798Z,5.62
2022-11-12T05:06:39.069Z,4.55
2022-11-12T05:09:28.155Z,3.00
2022-11-12T05:12:14.808Z,3.90
2022-11-12T05:15:01.497Z,4.10
2022-11-12T05:17:48.305Z,2.78
2022-11-12T05:20:36.303Z,2.97
2022-11-12T05:23:22.626Z,2.80
2022-11-12T05:26:09.038Z,4.12
2022-11-12T05:28:55.445Z,4.18
2022-11-12T05:31:41.853Z,4.57
2022-11-12T05:34:28.885Z,3.75
2022-11-12T05:37:15.910Z,3.45
2022-11-12T05:40:03.510Z,4.03
2022-11-12T05:42:50.129Z,2.95
2022-11-12T05:45:36.943Z,3.03
2022-11-12T05:48:24.659Z,3.28
2022-11-12T05:51:14.212Z,2.60
2022-11-12T05:54:01.680Z,2.50
2022-11-12T05:56:48.142Z,2.95
2022-11-12T05:59:34.735Z,3.50
2022-11-12T06:02:21.142Z,2.92
2022-11-12T06:05:08.229Z,2.90
2022-11-12T06:07:54.583Z,1.77
2022-11-12T06:10:40.960Z,4.30
2022-11-12T06:13:27.614Z,3.15
2022-11-12T06:16:14.236Z,3.08
2022-11-12T06:19:00.604Z,3.12
2022-11-12T06:21:47.334Z,3.47
2022-11-12T06:24:35.509Z,3.45
2022-11-12T06:27:24.181Z,3.58
2022-11-12T06:30:11.452Z,3.65
2022-11-12T06:32:58.378Z,3.12
2022-11-12T06:38:09.632Z,3.90
2022-11-12T06:40:57.101Z,3.22
2022-11-12T06:43:44.000Z,4.43
2022-11-12T06:46:30.406Z,8.30
2022-11-12T06:49:16.873Z,11.15
2022-11-12T06:52:03.815Z,12.10
2022-11-12T06:54:50.416Z,6.57
2022-11-12T06:57:36.767Z,5.57
2022-11-12T07:00:23.606Z,3.87
2022-11-12T07:03:13.280Z,4.12
2022-11-12T07:06:04.406Z,4.22
2022-11-12T07:08:51.171Z,3.75
2022-11-12T07:11:38.107Z,4.18
2022-11-12T07:14:24.742Z,4.57
2022-11-12T07:17:11.538Z,4.87
2022-11-12T07:20:02.388Z,6.22
2022-11-12T07:22:50.501Z,5.57
2022-11-12T07:25:37.018Z,4.55
2022-11-12T07:28:25.189Z,3.92
2022-11-12T07:31:14.133Z,7.07
2022-11-12T07:34:00.709Z,6.62
2022-11-12T07:36:51.483Z,5.97
2022-11-12T07:39:37.846Z,7.82
2022-11-12T07:42:24.417Z,6.78
2022-11-12T07:45:11.074Z,5.68
2022-11-12T07:48:00.619Z,5.78
2022-11-12T07:50:47.239Z,5.97
2022-11-12T07:53:33.839Z,5.87
2022-11-12T07:56:23.059Z,6.25
2022-11-12T07:59:09.669Z,6.07
2022-11-12T08:01:56.642Z,7.55
2022-11-12T08:04:43.179Z,6.32
2022-11-12T08:07:29.831Z,5.35
2022-11-12T08:10:17.307Z,6.90
2022-11-12T08:13:04.566Z,6.12
2022-11-12T08:15:52.503Z,5.47
2022-11-12T08:18:39.589Z,5.10
2022-11-12T08:21:26.419Z,4.72
2022-11-12T08:24:12.652Z,4.68
2022-11-12T08:26:58.969Z,4.20
2022-11-12T08:29:51.530Z,4.05
2022-11-12T08:32:38.455Z,4.60
2022-11-12T08:35:26.731Z,5.25
2022-11-12T08:38:14.166Z,4.12
2022-11-12T08:41:02.520Z,4.15
2022-11-12T08:43:49.141Z,4.95
2022-11-12T08:46:35.981Z,4.35
2022-11-12T08:49:22.747Z,4.78
2022-11-12T08:52:09.459Z,5.50
2022-11-12T08:54:55.741Z,4.47
2022-11-12T08:57:43.515Z,5.55
2022-11-12T09:00:35.608Z,4.87
2022-11-12T09:03:24.517Z,4.53
2022-11-12T09:06:11.107Z,3.53
2022-11-12T09:08:57.596Z,4.70
2022-11-12T09:11:44.256Z,5.57
2022-11-12T09:14:30.865Z,4.68
2022-11-12T09:17:17.416Z,4.20
2022-11-12T09:20:04.574Z,5.10
2022-11-12T09:22:51.884Z,4.40
2022-11-12T09:25:38.902Z,3.97
2022-11-12T09:28:25.787Z,4.82
2022-11-12T09:31:12.664Z,5.15
2022-11-12T09:33:59.207Z,4.87
2022-11-12T09:36:45.518Z,4.82
2022-11-12T09:39:32.105Z,4.75
2022-11-12T09:42:21.327Z,5.07
2022-11-12T09:45:20.950Z,4.35
2022-11-12T09:48:11.926Z,5.47
2022-11-12T09:51:00.377Z,5.00
2022-11-12T09:53:50.711Z,4.03
2022-11-12T09:56:37.091Z,4.65
2022-11-12T09:59:29.578Z,5.05
2022-11-12T10:02:52.350Z,4.97
2022-11-12T10:05:48.505Z,4.28
2022-11-12T10:09:08.612Z,4.32
2022-11-12T10:12:33.628Z,4.53
2022-11-12T10:16:06.634Z,4.35
2022-11-12T10:18:55.728Z,4.28
2022-11-12T10:21:48.338Z,4.22
2022-11-12T10:24:37.446Z,4.78
2022-11-12T10:27:28.337Z,4.18
2022-11-12T10:30:20.560Z,3.95
2022-11-12T10:33:13.565Z,4.22
2022-11-12T10:36:24.867Z,4.87
2022-11-12T10:39:34.654Z,5.03
2022-11-12T10:42:22.953Z,4.68
2022-11-12T10:45:21.274Z,4.22
2022-11-12T10:48:29.104Z,4.80
2022-11-12T10:51:24.064Z,4.72
2022-11-12T10:54:36.663Z,4.47
2022-11-12T10:57:27.549Z,4.68
2022-11-12T11:00:13.919Z,5.25
2022-11-12T11:03:03.418Z,4.75
2022-11-12T11:06:04.564Z,4.70
2022-11-12T11:08:53.160Z,3.87
2022-11-12T11:11:49.817Z,4.43
2022-11-12T11:14:36.349Z,4.72
2022-11-12T11:17:22.845Z,4.45
2022-11-12T11:20:26.009Z,4.37
2022-11-12T11:23:28.285Z,4.53
2022-11-12T11:26:37.416Z,4.53
2022-11-12T11:29:51.110Z,4.50
2022-11-12T11:33:05.409Z,4.53
2022-11-12T11:36:17.010Z,4.20
2022-11-12T11:39:15.431Z,4.20
2022-11-12T11:42:18.543Z,4.43
2022-11-12T11:45:10.515Z,5.12
2022-11-12T11:48:12.433Z,5.95
2022-11-12T11:51:07.848Z,5.10
2022-11-12T11:54:16.426Z,4.25
2022-11-12T11:57:12.422Z,5.47
2022-11-12T12:00:17.192Z,4.85
2022-11-12T12:03:20.316Z,5.50
2022-11-12T12:06:21.712Z,4.68
2022-11-12T12:09:08.315Z,4.60
2022-11-12T12:12:06.789Z,5.03
2022-11-12T12:15:23.433Z,4.60
2022-11-12T12:18:34.975Z,4.15
2022-11-12T12:21:23.899Z,5.03
2022-11-12T12:24:17.793Z,3.37
2022-11-12T12:27:13.587Z,4.40
2022-11-12T12:30:04.693Z,4.35
2022-11-12T12:32:55.235Z,5.10
2022-11-12T12:36:14.675Z,5.53
2022-11-12T12:39:10.057Z,4.93
2022-11-12T12:42:22.939Z,5.40
2022-11-12T12:45:40.492Z,5.15
2022-11-12T12:48:34.678Z,4.50
2022-11-12T12:51:22.431Z,5.03
2022-11-12T12:54:34.839Z,5.07
2022-11-12T12:57:38.357Z,5.20
2022-11-12T13:00:30.084Z,5.43
2022-11-12T13:03:48.941Z,4.65
2022-11-12T13:06:45.613Z,4.93
2022-11-12T13:09:33.337Z,4.95
2022-11-12T13:12:19.939Z,5.70
2022-11-12T13:15:13.008Z,5.15
2022-11-12T13:17:59.788Z,5.53
2022-11-12T13:21:10.919Z,4.93
2022-11-12T13:24:08.827Z,5.00
2022-11-12T13:27:00.392Z,4.25
2022-11-12T13:29:48.145Z,4.82
2022-11-12T13:32:36.618Z,5.22
2022-11-12T13:35:39.628Z,5.15
2022-11-12T13:38:27.116Z,6.40
2022-11-12T13:41:42.206Z,6.03
2022-11-12T13:44:29.473Z,5.97
2022-11-12T13:47:21.426Z,5.40
2022-11-12T13:50:16.173Z,5.70
2022-11-12T13:53:06.696Z,4.55
2022-11-12T13:55:54.965Z,5.10
2022-11-12T13:58:43.589Z,5.22
2022-11-12T14:01:32.592Z,4.03
2022-11-12T14:04:24.347Z,5.30
2022-11-12T14:07:13.532Z,5.50
2022-11-12T14:10:31.044Z,4.40
2022-11-12T14:13:38.433Z,5.60
2022-11-12T14:16:56.206Z,3.97
2022-11-12T14:20:27.130Z,5.55
2022-11-12T14:23:24.398Z,5.47
2022-11-12T14:26:13.238Z,5.05
2022-11-12T14:29:00.032Z,5.47
2022-11-12T14:31:47.140Z,5.25
2022-11-12T14:34:34.744Z,6.35
2022-11-12T14:37:41.647Z,5.43
2022-11-12T14:40:33.736Z,4.78
2022-11-12T14:43:38.722Z,5.20
2022-11-12T14:46:25.271Z,6.72
2022-11-12T14:49:44.965Z,5.40
2022-11-12T14:52:37.325Z,5.35
2022-11-12T14:55:29.545Z,5.15
2022-11-12T14:58:17.825Z,5.80
2022-11-12T15:02:13.960Z,5.25
2022-11-12T15:04:51.634Z,9.73
2022-11-12T15:08:13.022Z,6.30
2022-11-12T15:11:21.662Z,4.72
2022-11-12T15:14:21.523Z,5.55
2022-11-12T15:17:28.809Z,6.32
2022-11-12T15:20:17.959Z,7.43
2022-11-12T15:23:04.644Z,7.97
2022-11-12T15:26:01.482Z,8.02
2022-11-12T15:29:15.761Z,9.43
2022-11-12T15:32:21.894Z,8.57
2022-11-12T15:35:21.353Z,11.32
2022-11-12T15:38:22.479Z,10.82
2022-11-12T15:41:22.536Z,7.80
2022-11-12T15:44:10.790Z,9.13
2022-11-12T15:46:59.070Z,7.90
2022-11-12T15:49:54.748Z,6.85
2022-11-12T15:52:41.764Z,6.75
2022-11-12T15:55:28.325Z,7.82
2022-11-12T15:58:18.871Z,9.75
2022-11-12T16:01:05.779Z,26.62
2022-11-12T16:03:52.557Z,32.25
2022-11-12T16:06:39.433Z,36.60
2022-11-12T16:09:26.139Z,28.15
2022-11-12T16:12:13.918Z,23.73
2022-11-12T16:15:02.122Z,23.70
2022-11-12T16:17:48.710Z,30.30
2022-11-12T16:20:36.432Z,29.75
2022-11-12T16:23:22.859Z,22.87
2022-11-12T16:26:13.741Z,17.95
2022-11-12T16:29:01.012Z,14.87
2022-11-12T16:31:47.788Z,14.48
2022-11-12T16:34:34.431Z,22.83
2022-11-12T16:37:20.917Z,28.83
2022-11-12T16:40:14.144Z,28.20
2022-11-12T16:43:00.704Z,21.02
2022-11-12T16:45:46.979Z,16.58
2022-11-12T16:48:33.302Z,14.52
2022-11-12T16:51:22.183Z,13.68
2022-11-12T16:54:08.968Z,11.90
2022-11-12T16:56:55.444Z,10.55
2022-11-12T16:59:42.379Z,8.70
2022-11-12T17:02:28.763Z,7.90
2022-11-12T17:05:20.740Z,7.35
2022-11-12T17:08:09.380Z,8.52
2022-11-12T17:10:56.613Z,7.78
2022-11-12T17:13:43.873Z,7.85
2022-11-12T17:16:31.269Z,7.70
2022-11-12T17:19:17.684Z,7.57
2022-11-12T17:22:05.007Z,6.82
2022-11-12T17:24:51.481Z,7.30
2022-11-12T17:27:38.510Z,8.55
2022-11-12T17:30:29.083Z,7.85
2022-11-12T17:33:16.013Z,9.95
2022-11-12T17:36:05.861Z,9.90
2022-11-12T17:38:57.792Z,11.12
2022-11-12T17:41:44.454Z,10.05
2022-11-12T17:44:31.674Z,8.85
2022-11-12T17:47:18.132Z,10.20
2022-11-12T17:50:05.115Z,9.93
2022-11-12T17:52:52.645Z,8.93
2022-11-12T17:55:39.209Z,9.20
2022-11-12T17:58:25.919Z,9.52
2022-11-12T18:01:16.431Z,8.93
2022-11-12T18:04:03.328Z,9.40
2022-11-12T18:06:50.709Z,10.27
2022-11-12T18:09:37.276Z,11.57
2022-11-12T18:12:23.835Z,12.80
2022-11-12T18:15:11.519Z,13.93
2022-11-12T18:17:59.083Z,10.18
2022-11-12T18:20:45.962Z,11.80
2022-11-12T18:23:37.288Z,12.45
2022-11-12T18:26:23.853Z,10.27
2022-11-12T18:29:10.691Z,10.90
2022-11-12T18:31:57.255Z,10.50
2022-11-12T18:34:45.356Z,10.23
2022-11-12T18:37:32.361Z,11.82
2022-11-12T18:40:20.766Z,16.27
2022-11-12T18:43:07.479Z,12.40
2022-11-12T18:45:56.083Z,16.08
2022-11-12T18:48:42.691Z,13.85
2022-11-12T18:51:29.559Z,10.73
2022-11-12T18:54:16.571Z,10.23
2022-11-12T18:57:03.131Z,9.85
2022-11-12T18:59:52.195Z,9.48
2022-11-12T19:02:38.927Z,10.65
2022-11-12T19:05:25.607Z,10.02
2022-11-12T19:08:12.556Z,10.30
2022-11-12T19:11:03.263Z,9.07
2022-11-12T19:13:51.676Z,8.38
2022-11-12T19:16:42.528Z,8.60
2022-11-12T19:19:29.836Z,6.97
2022-11-12T19:22:16.172Z,8.07
2022-11-12T19:25:03.123Z,8.10
2022-11-12T19:27:49.760Z,7.80
2022-11-12T19:30:36.417Z,7.68
2022-11-12T19:33:23.795Z,8.07
2022-11-12T19:36:13.363Z,7.95
2022-11-12T19:39:02.562Z,7.22
2022-11-12T19:41:49.142Z,7.72
2022-11-12T19:44:36.066Z,8.55
2022-11-12T19:47:22.818Z,8.73
2022-11-12T19:50:09.897Z,10.65
2022-11-12T19:52:57.114Z,10.38
2022-11-12T19:55:44.049Z,9.80
2022-11-12T19:58:34.303Z,7.68
2022-11-12T20:01:24.196Z,8.13
2022-11-12T20:04:12.279Z,8.32
2022-11-12T20:06:59.520Z,7.72
2022-11-12T20:09:46.629Z,8.90
2022-11-12T20:12:33.899Z,9.23
2022-11-12T20:15:20.243Z,8.98
2022-11-12T20:18:06.666Z,6.82
2022-11-12T20:20:56.599Z,7.90
2022-11-12T20:23:43.282Z,7.95
2022-11-12T20:26:29.870Z,8.32
2022-11-12T20:29:17.116Z,8.68
2022-11-12T20:32:07.252Z,7.32
2022-11-12T20:34:53.727Z,9.48
2022-11-12T20:37:42.745Z,9.20
2022-11-12T20:40:30.961Z,9.23
2022-11-12T20:43:18.148Z,7.75
2022-11-12T20:46:05.169Z,7.20
2022-11-12T20:48:55.082Z,8.43
2022-11-12T20:51:41.930Z,7.90
2022-11-12T20:54:28.816Z,9.43
2022-11-12T20:57:15.350Z,8.30
2022-11-12T21:00:02.418Z,7.62
2022-11-12T21:02:49.022Z,8.52
2022-11-12T21:05:35.445Z,8.82
2022-11-12T21:08:22.168Z,7.03
2022-11-12T21:11:12.478Z,7.32
2022-11-12T21:14:00.518Z,8.95
2022-11-12T21:16:47.321Z,8.60
2022-11-12T21:19:33.668Z,7.72
2022-11-12T21:22:20.844Z,7.00
2022-11-12T21:25:07.285Z,7.12
2022-11-12T21:27:54.723Z,8.43
2022-11-12T21:30:41.393Z,7.07
2022-11-12T21:33:28.505Z,6.62
2022-11-12T21:36:16.712Z,7.12
2022-11-12T21:39:04.614Z,7.07
2022-11-12T21:41:53.932Z,5.50
2022-11-12T21:44:40.235Z,6.78
2022-11-12T21:47:26.800Z,5.37
2022-11-12T21:50:13.618Z,5.57
2022-11-12T21:53:00.139Z,4.95
2022-11-12T21:55:47.064Z,5.55
2022-11-12T21:58:34.075Z,5.43
2022-11-12T22:01:24.988Z,6.95
2022-11-12T22:04:15.613Z,6.72
2022-11-12T22:07:04.882Z,5.62
2022-11-12T22:09:56.565Z,6.95
2022-11-12T22:13:04.967Z,6.72
2022-11-12T22:15:50.688Z,7.47
2022-11-12T22:18:37.658Z,7.00
2022-11-12T22:21:38.407Z,5.00
2022-11-12T22:24:26.311Z,6.62
2022-11-12T22:27:12.643Z,6.35
2022-11-12T22:29:59.584Z,7.30
2022-11-12T22:32:45.852Z,7.55
2022-11-12T22:35:33.266Z,7.70
2022-11-12T22:38:19.679Z,8.25
2022-11-12T22:41:13.859Z,9.13
2022-11-12T22:44:02.507Z,8.43
2022-11-12T22:46:49.088Z,7.75
2022-11-12T22:49:36.197Z,8.05
2022-11-12T22:52:23.028Z,7.72
2022-11-12T22:55:09.482Z,7.72
2022-11-12T22:57:58.995Z,7.25
2022-11-12T23:00:45.436Z,5.95
2022-11-12T23:03:32.599Z,7.35
2022-11-12T23:06:19.518Z,6.80
2022-11-12T23:09:06.143Z,7.20
2022-11-12T23:11:52.683Z,8.38
2022-11-12T23:14:39.533Z,8.40
2022-11-12T23:17:26.142Z,6.95
2022-11-12T23:20:13.061Z,7.43
2022-11-12T23:22:59.732Z,7.53
2022-11-12T23:25:46.242Z,7.15
2022-11-12T23:28:34.279Z,7.03
2022-11-12T23:31:24.177Z,6.82
2022-11-12T23:34:12.881Z,7.78
2022-11-12T23:36:59.394Z,6.37
2022-11-12T23:39:46.110Z,6.28
2022-11-12T23:42:32.520Z,5.65
2022-11-12T23:45:19.077Z,5.95
2022-11-12T23:48:05.594Z,7.57
2022-11-12T23:51:20.459Z,6.32
2022-11-12T23:54:07.082Z,5.32
2022-11-12T23:56:53.840Z,6.90
2022-11-12T23:59:40.634Z,6.65
